Time;durP1;ratioP1;P1;durP2;ratioP2;P2;SDS_P1;SDS_P2;PMS_P1;PMS_P2;Temp;Humidity;BMP_temperature;BMP_pressure;BME280_temperature;BME280_humidity;BME280_pressure;Samples;Min_cycle;Max_cycle;Signal;HPM_P1;HPM_P2
2022/03/08 00:02:13;;;;;;;0.82;0.82;;;20.40;34.30;;;;;;5094465;28;20044;-79
2022/03/08 00:04:40;;;;;;;0.90;0.85;;;20.40;34.30;;;;;;5112850;28;20043;-79
2022/03/08 00:07:06;;;;;;;0.77;0.70;;;20.40;34.30;;;;;;5112851;28;20051;-79
2022/03/08 00:09:32;;;;;;;0.65;0.65;;;20.40;34.30;;;;;;5111313;28;20479;-79
2022/03/08 00:11:57;;;;;;;0.90;0.70;;;20.40;34.30;;;;;;5112631;28;20040;-79
2022/03/08 00:14:23;;;;;;;0.70;0.70;;;20.40;34.30;;;;;;5112953;28;20052;-79
2022/03/08 00:16:48;;;;;;;0.82;0.82;;;20.40;34.30;;;;;;5093489;28;20048;-79
2022/03/08 00:19:14;;;;;;;0.80;0.80;;;20.40;34.30;;;;;;5092964;28;20063;-79
2022/03/08 00:21:40;;;;;;;0.80;0.80;;;20.40;34.30;;;;;;5094330;28;20499;-79
2022/03/08 00:24:07;;;;;;;0.70;0.70;;;20.40;34.30;;;;;;5112707;28;20058;-79
2022/03/08 00:26:32;;;;;;;1.05;0.95;;;20.40;34.80;;;;;;5112609;28;20075;-79
2022/03/08 00:28:58;;;;;;;1.13;0.60;;;20.40;34.30;;;;;;5112555;28;20495;-79
2022/03/08 00:31:24;;;;;;;1.00;0.80;;;20.40;34.30;;;;;;5094856;28;20138;-79
2022/03/08 00:33:49;;;;;;;0.70;0.70;;;20.40;34.30;;;;;;5116115;28;20142;-79
2022/03/08 00:36:15;;;;;;;1.00;0.90;;;20.40;34.30;;;;;;5097830;28;20047;-79
2022/03/08 00:38:44;;;;;;;0.60;0.60;;;20.40;34.30;;;;;;5116102;28;20047;-79
2022/03/08 00:41:09;;;;;;;1.15;0.93;;;20.40;34.30;;;;;;5114654;28;20116;-79
2022/03/08 00:43:35;;;;;;;0.60;0.60;;;20.40;34.30;;;;;;5115989;28;20499;-79
2022/03/08 00:46:01;;;;;;;0.95;0.70;;;20.40;34.30;;;;;;5098262;28;20051;-79
2022/03/08 00:48:26;;;;;;;0.80;0.80;;;20.40;34.30;;;;;;5097367;28;20051;-79
2022/03/08 00:50:52;;;;;;;1.42;0.80;;;20.40;34.40;;;;;;5096684;28;20056;-79
2022/03/08 00:53:18;;;;;;;0.75;0.73;;;20.40;34.40;;;;;;5116178;28;20048;-79
2022/03/08 00:55:44;;;;;;;0.65;0.65;;;20.40;34.40;;;;;;5115975;28;20056;-79
2022/03/08 00:58:10;;;;;;;0.80;0.80;;;20.40;34.40;;;;;;5115707;28;20055;-79
2022/03/08 01:00:39;;;;;;;1.13;0.80;;;20.40;34.30;;;;;;5096136;28;20091;-79
2022/03/08 01:03:05;;;;;;;0.90;0.77;;;20.40;34.40;;;;;;5115881;28;20048;-79
2022/03/08 01:05:31;;;;;;;0.70;0.70;;;20.40;34.90;;;;;;5115711;28;20499;-79
2022/03/08 01:07:58;;;;;;;0.70;0.70;;;20.40;34.40;;;;;;5079717;28;20402;-79
2022/03/08 01:10:24;;;;;;;1.00;0.82;;;20.40;34.40;;;;;;5115403;28;20507;-79
2022/03/08 01:12:53;;;;;;;0.77;0.77;;;20.40;34.30;;;;;;5115555;28;20047;-79
2022/03/08 01:15:19;;;;;;;0.70;0.70;;;20.40;34.30;;;;;;5097177;28;20130;-79
2022/03/08 01:17:47;;;;;;;0.80;0.80;;;20.40;34.30;;;;;;5096912;28;20055;-79
2022/03/08 01:20:13;;;;;;;0.80;0.80;;;20.40;34.30;;;;;;5096532;28;20094;-79
2022/03/08 01:22:39;;;;;;;0.70;0.70;;;20.40;34.30;;;;;;5096861;28;20054;-79
2022/03/08 01:25:05;;;;;;;1.13;0.90;;;20.40;34.30;;;;;;5097616;28;20043;-79
2022/03/08 01:27:31;;;;;;;0.65;0.65;;;20.40;34.30;;;;;;5115266;28;20067;-79
2022/03/08 01:29:56;;;;;;;1.10;0.90;;;20.40;34.30;;;;;;5115081;28;20083;-79
2022/03/08 01:32:23;;;;;;;1.13;0.95;;;20.40;34.30;;;;;;5096867;28;20057;-79
2022/03/08 01:34:48;;;;;;;0.82;0.82;;;20.40;34.30;;;;;;5114031;28;20044;-79
2022/03/08 01:37:15;;;;;;;0.77;0.73;;;20.40;34.30;;;;;;5115438;28;20479;-79
2022/03/08 01:39:41;;;;;;;0.73;0.73;;;20.40;34.30;;;;;;5096919;28;20055;-79
2022/03/08 01:42:12;;;;;;;1.38;1.02;;;20.40;34.30;;;;;;5114900;28;20056;-79
2022/03/08 01:44:41;;;;;;;0.75;0.75;;;20.40;34.30;;;;;;5114157;28;20055;-79
2022/03/08 01:47:07;;;;;;;0.90;0.80;;;20.40;34.30;;;;;;5094680;28;20143;-79
2022/03/08 01:49:32;;;;;;;0.95;0.70;;;20.40;34.30;;;;;;5096878;28;20052;-79
2022/03/08 01:51:58;;;;;;;0.70;0.70;;;20.40;34.30;;;;;;5114954;28;20052;-79
2022/03/08 01:54:24;;;;;;;0.60;0.60;;;20.40;34.30;;;;;;5114817;28;20047;-79
2022/03/08 01:56:49;;;;;;;2.22;0.88;;;20.40;34.30;;;;;;5114280;28;20146;-79
2022/03/08 01:59:15;;;;;;;0.93;0.77;;;20.40;34.30;;;;;;5115091;28;20066;-79
2022/03/08 02:01:41;;;;;;;0.80;0.80;;;20.40;34.30;;;;;;5114386;28;20047;-79
2022/03/08 02:04:06;;;;;;;1.20;0.95;;;20.40;34.30;;;;;;5115023;28;20408;-79
2022/03/08 02:06:32;;;;;;;1.00;0.80;;;20.40;34.30;;;;;;5113339;28;20134;-79
2022/03/08 02:08:57;;;;;;;0.75;0.75;;;20.40;34.30;;;;;;5114507;28;20044;-79
2022/03/08 02:11:24;;;;;;;1.00;0.80;;;20.40;34.30;;;;;;5114591;28;20048;-79
2022/03/08 02:13:49;;;;;;;1.35;1.00;;;20.30;34.30;;;;;;5114459;28;20051;-79
2022/03/08 02:16:15;;;;;;;0.68;0.68;;;20.40;34.30;;;;;;5096217;28;20043;-79
2022/03/08 02:18:41;;;;;;;1.38;0.82;;;20.40;34.30;;;;;;5114397;28;20126;-79
2022/03/08 02:21:08;;;;;;;0.90;0.90;;;20.40;34.30;;;;;;5114550;28;20048;-79
2022/03/08 02:23:34;;;;;;;0.77;0.77;;;20.40;34.30;;;;;;5114459;28;20048;-79
2022/03/08 02:26:01;;;;;;;0.70;0.70;;;20.40;34.30;;;;;;5114471;28;20044;-79
2022/03/08 02:28:28;;;;;;;0.93;0.82;;;20.40;34.30;;;;;;5095761;28;20548;-79
2022/03/08 02:30:54;;;;;;;0.70;0.70;;;20.40;34.30;;;;;;5112900;28;20407;-79
2022/03/08 02:33:20;;;;;;;0.80;0.80;;;20.40;34.30;;;;;;5114535;28;20047;-79
2022/03/08 02:35:45;;;;;;;0.80;0.80;;;20.40;34.30;;;;;;5095866;28;20380;-79
2022/03/08 02:38:11;;;;;;;1.30;1.00;;;20.40;34.30;;;;;;5095818;28;20146;-79
2022/03/08 02:40:39;;;;;;;0.68;0.68;;;20.40;34.30;;;;;;5095659;28;20442;-79
2022/03/08 02:43:07;;;;;;;0.98;0.73;;;20.40;34.30;;;;;;5095738;28;20566;-79
2022/03/08 02:45:36;;;;;;;0.80;0.70;;;20.40;34.30;;;;;;5110683;28;20053;-79
2022/03/08 02:48:06;;;;;;;0.90;0.80;;;20.40;34.30;;;;;;5078845;28;20447;-79
2022/03/08 02:50:45;;;;;;;0.88;0.80;;;20.40;34.40;;;;;;5113922;28;20102;-79
2022/03/08 02:53:15;;;;;;;1.05;0.90;;;20.30;34.20;;;;;;5077017;28;20052;-79
2022/03/08 02:55:58;;;;;;;1.60;1.08;;;20.40;34.30;;;;;;5096646;28;20499;-78
2022/03/08 02:58:30;;;;;;;0.85;0.85;;;20.30;34.20;;;;;;5095155;28;20055;-79
2022/03/08 03:01:12;;;;;;;0.77;0.77;;;20.40;34.30;;;;;;5078082;28;20407;-79
2022/03/08 03:03:43;;;;;;;0.80;0.70;;;20.40;34.90;;;;;;5113661;28;20055;-79
2022/03/08 03:06:08;;;;;;;0.80;0.80;;;20.40;34.30;;;;;;5113529;28;20048;-79
2022/03/08 03:08:34;;;;;;;1.38;0.90;;;20.40;34.30;;;;;;5113589;28;20404;-79
2022/03/08 03:10:59;;;;;;;0.88;0.85;;;20.40;34.30;;;;;;5112067;28;20561;-79
2022/03/08 03:13:25;;;;;;;0.60;0.60;;;20.40;34.30;;;;;;5111354;28;20048;-79
2022/03/08 03:15:50;;;;;;;0.85;0.85;;;20.40;34.30;;;;;;5112786;28;20109;-78
2022/03/08 03:18:16;;;;;;;0.82;0.70;;;20.40;34.30;;;;;;5113655;28;20501;-79
2022/03/08 03:20:42;;;;;;;1.02;0.93;;;20.40;34.20;;;;;;5113517;28;20141;-79
2022/03/08 03:23:08;;;;;;;0.90;0.80;;;20.40;34.20;;;;;;5094947;28;20069;-79
2022/03/08 03:25:34;;;;;;;1.08;0.88;;;20.40;34.20;;;;;;5113440;28;20047;-79
2022/03/08 03:27:59;;;;;;;0.70;0.70;;;20.40;34.20;;;;;;5095033;28;20051;-79
2022/03/08 03:30:25;;;;;;;0.77;0.77;;;20.40;34.20;;;;;;5095255;28;20059;-79
2022/03/08 03:32:50;;;;;;;0.68;0.68;;;20.40;34.10;;;;;;5113421;28;20365;-79
2022/03/08 03:35:16;;;;;;;0.88;0.88;;;20.50;34.10;;;;;;5113339;28;20064;-79
2022/03/08 03:37:42;;;;;;;0.77;0.77;;;20.50;34.10;;;;;;5113145;28;20108;-78
2022/03/08 03:40:09;;;;;;;0.80;0.80;;;20.50;34.10;;;;;;5113180;28;20062;-79
2022/03/08 03:42:35;;;;;;;1.10;1.00;;;20.50;34.10;;;;;;5094575;28;20521;-79
2022/03/08 03:45:01;;;;;;;0.82;0.82;;;20.60;34.10;;;;;;5111756;28;20055;-79
2022/03/08 03:47:27;;;;;;;1.95;0.90;;;20.60;34.10;;;;;;5112868;28;20557;-78
2022/03/08 03:49:52;;;;;;;0.90;0.90;;;20.60;34.10;;;;;;5094575;28;20062;-79
2022/03/08 03:52:18;;;;;;;1.33;1.10;;;20.60;34.00;;;;;;5113399;28;20035;-79
2022/03/08 03:54:44;;;;;;;0.82;0.70;;;20.60;34.00;;;;;;5112932;28;20138;-78
2022/03/08 03:57:11;;;;;;;0.90;0.90;;;20.60;34.00;;;;;;5112807;28;20499;-78
2022/03/08 03:59:38;;;;;;;0.85;0.80;;;20.60;34.00;;;;;;5094911;28;20052;-78
2022/03/08 04:02:04;;;;;;;1.00;0.90;;;20.60;33.90;;;;;;5112507;28;20518;-78
2022/03/08 04:04:29;;;;;;;1.08;0.88;;;20.60;34.50;;;;;;5112806;28;20060;-78
2022/03/08 04:06:55;;;;;;;1.17;0.93;;;20.60;34.00;;;;;;5114225;28;20059;-78
2022/03/08 04:09:20;;;;;;;1.02;0.90;;;20.60;33.90;;;;;;5116319;28;20094;-78
2022/03/08 04:11:46;;;;;;;0.80;0.80;;;20.70;33.90;;;;;;5115999;28;20054;-78
2022/03/08 04:14:11;;;;;;;1.23;0.90;;;20.70;34.00;;;;;;5115023;28;20055;-78
2022/03/08 04:16:37;;;;;;;0.70;0.70;;;20.70;34.00;;;;;;5116168;28;20056;-78
2022/03/08 04:19:03;;;;;;;0.70;0.70;;;20.70;33.90;;;;;;5116210;28;20056;-78
2022/03/08 04:21:28;;;;;;;0.80;0.80;;;20.70;33.90;;;;;;5116125;28;20407;-78
2022/03/08 04:23:54;;;;;;;1.08;0.93;;;20.70;33.90;;;;;;5116067;28;20056;-78
2022/03/08 04:26:20;;;;;;;0.90;0.90;;;20.70;33.90;;;;;;5097945;28;20047;-78
2022/03/08 04:28:46;;;;;;;1.00;0.90;;;20.70;33.90;;;;;;5095691;28;20104;-78
2022/03/08 04:31:11;;;;;;;0.98;0.90;;;20.70;33.90;;;;;;5115992;28;20134;-78
2022/03/08 04:33:38;;;;;;;2.55;1.10;;;20.70;33.90;;;;;;5116037;28;20128;-78
2022/03/08 04:36:04;;;;;;;1.15;1.00;;;20.70;33.90;;;;;;5115890;28;20063;-78
2022/03/08 04:38:30;;;;;;;0.90;0.90;;;20.60;33.90;;;;;;5115907;28;20052;-78
2022/03/08 04:40:55;;;;;;;0.95;0.88;;;20.70;33.90;;;;;;5116221;28;20529;-78
2022/03/08 04:43:21;;;;;;;0.80;0.80;;;20.70;33.90;;;;;;5115913;28;20055;-78
2022/03/08 04:45:48;;;;;;;0.98;0.88;;;20.60;33.90;;;;;;5115823;28;20047;-78
2022/03/08 04:48:16;;;;;;;0.82;0.80;;;20.70;33.90;;;;;;5115817;28;20384;-78
2022/03/08 04:50:41;;;;;;;0.93;0.90;;;20.70;33.90;;;;;;5116156;28;20055;-78
2022/03/08 04:53:07;;;;;;;1.08;0.88;;;20.60;33.90;;;;;;5115851;28;20057;-78
2022/03/08 04:55:33;;;;;;;1.10;1.00;;;20.60;33.90;;;;;;5114624;28;20054;-78
2022/03/08 04:58:04;;;;;;;0.82;0.82;;;20.60;33.90;;;;;;5096157;28;20079;-78
2022/03/08 05:00:29;;;;;;;1.25;0.98;;;20.60;33.90;;;;;;5115703;28;20093;-78
2022/03/08 05:02:55;;;;;;;0.85;0.85;;;20.60;33.90;;;;;;5097181;28;20048;-78
2022/03/08 05:05:20;;;;;;;0.80;0.80;;;20.60;33.90;;;;;;5114486;28;20062;-78
2022/03/08 05:07:46;;;;;;;1.33;1.02;;;20.60;33.90;;;;;;5115523;28;20120;-78
2022/03/08 05:10:12;;;;;;;1.20;1.10;;;20.60;33.90;;;;;;5115598;28;20124;-78
2022/03/08 05:12:38;;;;;;;0.82;0.80;;;20.60;33.90;;;;;;5115418;28;20040;-78
2022/03/08 05:15:05;;;;;;;0.90;0.80;;;20.60;33.90;;;;;;5115546;28;20068;-78
2022/03/08 05:17:31;;;;;;;1.17;1.08;;;20.60;33.90;;;;;;5115214;28;20108;-78
2022/03/08 05:19:57;;;;;;;1.00;0.90;;;20.60;33.90;;;;;;5115736;28;20052;-78
2022/03/08 05:22:22;;;;;;;1.00;0.90;;;20.60;33.90;;;;;;5115426;28;20076;-78
2022/03/08 05:24:48;;;;;;;0.98;0.90;;;20.60;33.90;;;;;;5097520;28;20048;-78
2022/03/08 05:27:14;;;;;;;1.73;1.30;;;20.60;34.00;;;;;;5080141;28;20163;-78
2022/03/08 05:29:40;;;;;;;1.20;1.08;;;20.60;33.90;;;;;;5097257;28;20055;-78
2022/03/08 05:32:06;;;;;;;1.13;1.02;;;20.60;34.00;;;;;;5097437;28;20059;-78
2022/03/08 05:34:32;;;;;;;1.17;1.13;;;20.60;33.90;;;;;;5096767;28;20491;-78
2022/03/08 05:36:57;;;;;;;1.48;1.38;;;20.60;34.00;;;;;;5078578;28;20138;-78
2022/03/08 05:39:23;;;;;;;1.23;1.00;;;20.60;34.00;;;;;;5115398;28;20051;-78
2022/03/08 05:41:49;;;;;;;0.82;0.82;;;20.60;34.00;;;;;;5114889;28;20059;-78
2022/03/08 05:44:15;;;;;;;1.13;1.02;;;20.60;33.90;;;;;;5114731;28;20453;-78
2022/03/08 05:46:41;;;;;;;0.77;0.77;;;20.60;34.00;;;;;;5095023;28;20143;-78
2022/03/08 05:49:07;;;;;;;1.00;0.90;;;20.60;34.50;;;;;;5114947;28;20062;-78
2022/03/08 05:51:32;;;;;;;0.95;0.90;;;20.60;33.90;;;;;;5114775;28;20048;-78
2022/03/08 05:53:58;;;;;;;1.02;0.93;;;20.60;33.90;;;;;;5114745;28;20126;-78
2022/03/08 05:56:24;;;;;;;1.20;1.10;;;20.60;33.90;;;;;;5114844;28;20078;-78
2022/03/08 05:58:49;;;;;;;1.20;1.10;;;20.60;33.90;;;;;;5114590;28;20048;-78
2022/03/08 06:01:15;;;;;;;1.02;1.00;;;20.60;33.90;;;;;;5094917;28;20051;-78
2022/03/08 06:03:40;;;;;;;0.90;0.90;;;20.60;33.90;;;;;;5096174;28;20055;-78
2022/03/08 06:06:06;;;;;;;1.02;0.93;;;20.60;33.90;;;;;;5114679;28;20043;-78
2022/03/08 06:08:32;;;;;;;0.88;0.88;;;20.60;33.90;;;;;;5114556;28;20091;-78
2022/03/08 06:10:57;;;;;;;1.20;1.10;;;20.70;33.80;;;;;;5096195;28;20388;-78
2022/03/08 06:13:23;;;;;;;0.80;0.80;;;20.80;33.80;;;;;;5114443;28;20055;-78
2022/03/08 06:15:48;;;;;;;0.80;0.80;;;20.80;33.70;;;;;;5114748;28;20051;-78
2022/03/08 06:18:14;;;;;;;1.33;0.95;;;20.90;33.60;;;;;;5114579;28;20048;-78
2022/03/08 06:20:40;;;;;;;1.23;1.13;;;21.00;33.60;;;;;;5114229;28;20407;-78
2022/03/08 06:23:06;;;;;;;1.05;1.00;;;21.00;33.40;;;;;;5114321;28;20047;-78
2022/03/08 06:25:31;;;;;;;1.10;1.00;;;21.10;33.40;;;;;;5114383;28;20047;-77
2022/03/08 06:27:57;;;;;;;1.20;0.95;;;21.10;33.20;;;;;;5095925;28;20058;-77
2022/03/08 06:30:22;;;;;;;1.30;1.20;;;21.20;33.20;;;;;;5113678;28;20130;-78
2022/03/08 06:32:48;;;;;;;1.30;1.20;;;21.30;33.20;;;;;;5114321;28;20047;-78
2022/03/08 06:35:14;;;;;;;0.98;0.93;;;21.30;33.10;;;;;;5114453;28;20429;-79
2022/03/08 06:37:40;;;;;;;1.15;1.05;;;21.30;33.00;;;;;;5114073;28;20044;-80
2022/03/08 06:40:07;;;;;;;0.80;0.80;;;21.40;32.90;;;;;;5114148;28;20051;-80
2022/03/08 06:42:32;;;;;;;1.15;1.05;;;21.40;32.90;;;;;;5113919;28;20040;-78
2022/03/08 06:44:58;;;;;;;1.30;1.13;;;21.50;32.90;;;;;;5112751;28;20063;-77
2022/03/08 06:47:23;;;;;;;2.35;1.10;;;21.60;32.90;;;;;;5114262;28;20097;-78
2022/03/08 06:49:50;;;;;;;1.20;1.10;;;21.60;32.80;;;;;;5112704;28;20052;-78
2022/03/08 06:52:16;;;;;;;1.02;0.93;;;21.70;32.70;;;;;;5113928;28;20552;-81
2022/03/08 06:54:42;;;;;;;1.25;1.15;;;21.70;32.70;;;;;;5111718;28;20052;-82
2022/03/08 06:57:08;;;;;;;2.45;1.15;;;21.80;32.70;;;;;;5113788;28;20060;-79
2022/03/08 06:59:34;;;;;;;3.30;1.30;;;21.80;32.60;;;;;;5113857;28;20514;-79
2022/03/08 07:01:59;;;;;;;2.30;1.50;;;21.80;32.60;;;;;;5094728;28;20051;-79
2022/03/08 07:04:25;;;;;;;1.60;1.50;;;21.90;32.50;;;;;;5093944;28;20223;-79
2022/03/08 07:06:51;;;;;;;1.65;1.17;;;21.90;32.30;;;;;;5113600;28;20074;-79
2022/03/08 07:09:17;;;;;;;1.88;1.40;;;21.90;32.20;;;;;;5114025;28;20081;-79
2022/03/08 07:11:43;;;;;;;1.88;1.45;;;21.90;32.10;;;;;;5113464;28;20048;-78
2022/03/08 07:14:10;;;;;;;3.00;1.90;;;22.00;32.10;;;;;;5113706;28;20134;-79
2022/03/08 07:16:35;;;;;;;8.07;1.70;;;22.00;32.10;;;;;;5113473;28;20044;-78
2022/03/08 07:19:02;;;;;;;1.73;1.63;;;22.00;32.60;;;;;;5113293;28;20535;-78
2022/03/08 07:21:28;;;;;;;1.83;1.50;;;22.00;32.00;;;;;;5113157;28;20058;-78
2022/03/08 07:23:54;;;;;;;2.55;1.88;;;22.10;32.00;;;;;;5093453;28;20075;-78
2022/03/08 07:26:19;;;;;;;1.90;1.70;;;22.10;31.90;;;;;;5113807;28;20047;-78
2022/03/08 07:28:45;;;;;;;2.42;1.70;;;22.10;31.70;;;;;;5113301;28;20055;-78
2022/03/08 07:31:12;;;;;;;2.10;1.70;;;22.20;31.60;;;;;;5113707;28;20407;-78
2022/03/08 07:33:38;;;;;;;2.70;1.88;;;22.20;31.50;;;;;;5113110;28;20052;-78
2022/03/08 07:36:04;;;;;;;2.35;1.77;;;22.20;31.40;;;;;;5113243;28;20051;-78
2022/03/08 07:38:29;;;;;;;4.15;1.92;;;22.20;31.30;;;;;;5113157;28;20455;-78
2022/03/08 07:40:55;;;;;;;3.28;1.83;;;22.20;31.20;;;;;;5112040;28;20058;-78
2022/03/08 07:43:20;;;;;;;3.90;1.98;;;22.30;31.20;;;;;;5112998;28;20048;-78
2022/03/08 07:45:46;;;;;;;2.53;1.70;;;22.30;31.10;;;;;;5113114;28;20131;-78
2022/03/08 07:48:11;;;;;;;3.30;2.00;;;22.30;31.10;;;;;;5113407;28;20068;-78
2022/03/08 07:50:37;;;;;;;2.45;1.80;;;22.30;31.00;;;;;;5113025;28;20047;-78
2022/03/08 07:53:04;;;;;;;2.30;1.88;;;22.30;31.00;;;;;;5113615;28;20040;-80
2022/03/08 07:55:30;;;;;;;2.50;1.80;;;22.20;30.90;;;;;;5093247;28;20143;-79
2022/03/08 07:58:00;;;;;;;3.13;2.20;;;22.20;30.90;;;;;;5113242;28;20074;-78
2022/03/08 08:00:26;;;;;;;2.60;2.00;;;22.20;30.90;;;;;;5112902;28;20058;-78
2022/03/08 08:02:52;;;;;;;3.97;2.15;;;22.20;30.90;;;;;;5112852;28;20130;-78
2022/03/08 08:05:20;;;;;;;2.60;2.10;;;22.20;30.80;;;;;;5112762;28;20075;-78
2022/03/08 08:07:46;;;;;;;5.28;2.00;;;22.20;30.90;;;;;;5112825;28;20055;-78
2022/03/08 08:10:12;;;;;;;3.10;2.33;;;22.10;30.80;;;;;;5112457;28;20518;-78
2022/03/08 08:12:38;;;;;;;2.35;1.98;;;22.10;30.90;;;;;;5113014;28;20039;-78
2022/03/08 08:15:04;;;;;;;2.75;1.88;;;22.10;30.90;;;;;;5093113;28;20457;-79
2022/03/08 08:17:30;;;;;;;3.15;2.10;;;22.00;30.80;;;;;;5093027;28;20084;-79
2022/03/08 08:19:56;;;;;;;3.10;2.35;;;22.00;30.90;;;;;;5112510;28;20074;-79
2022/03/08 08:22:22;;;;;;;2.85;2.03;;;21.90;30.80;;;;;;5112511;28;20499;-79
2022/03/08 08:24:48;;;;;;;1.98;1.77;;;21.90;30.90;;;;;;5094357;28;20057;-79
2022/03/08 08:27:14;;;;;;;2.40;1.90;;;21.90;30.90;;;;;;5094276;28;20055;-79
2022/03/08 08:29:40;;;;;;;4.30;2.30;;;21.90;31.50;;;;;;5112442;28;20097;-79
2022/03/08 08:32:06;;;;;;;3.65;2.42;;;21.80;30.90;;;;;;5111245;28;20048;-79
2022/03/08 08:34:32;;;;;;;3.22;2.53;;;21.80;31.00;;;;;;5112746;28;20052;-79
2022/03/08 08:36:58;;;;;;;4.07;2.50;;;21.80;30.90;;;;;;5112270;28;20449;-79
2022/03/08 08:39:24;;;;;;;2.33;2.05;;;21.80;31.00;;;;;;5112238;28;20048;-79
2022/03/08 08:41:50;;;;;;;3.08;2.25;;;21.70;31.00;;;;;;5111992;28;20066;-79
2022/03/08 08:44:15;;;;;;;3.25;2.10;;;21.70;31.00;;;;;;5112628;28;20044;-79
2022/03/08 08:46:41;;;;;;;2.75;2.10;;;21.60;31.10;;;;;;5094066;28;20055;-79
2022/03/08 08:49:07;;;;;;;2.97;2.10;;;21.60;31.10;;;;;;5092263;28;20070;-79
2022/03/08 08:51:32;;;;;;;3.00;2.22;;;21.60;31.10;;;;;;5093968;28;20044;-79
2022/03/08 08:53:58;;;;;;;7.22;2.70;;;21.50;31.10;;;;;;5114131;28;20143;-79
2022/03/08 08:56:24;;;;;;;4.72;2.65;;;21.50;31.10;;;;;;5097465;28;20079;-79
2022/03/08 08:58:50;;;;;;;2.83;2.50;;;21.40;31.00;;;;;;5115615;28;20074;-79
2022/03/08 09:01:15;;;;;;;4.07;2.28;;;21.40;31.10;;;;;;5097219;28;20055;-79
2022/03/08 09:03:41;;;;;;;2.88;2.20;;;21.40;31.10;;;;;;5115621;28;20070;-79
2022/03/08 09:06:06;;;;;;;4.25;2.58;;;21.30;31.10;;;;;;5115606;28;20383;-79
2022/03/08 09:08:32;;;;;;;3.20;2.20;;;21.40;31.10;;;;;;5115445;28;20092;-79
2022/03/08 09:10:58;;;;;;;2.53;2.20;;;21.30;31.20;;;;;;5115523;28;20051;-79
2022/03/08 09:13:24;;;;;;;3.40;2.72;;;21.30;31.20;;;;;;5115652;28;20055;-79
2022/03/08 09:15:50;;;;;;;3.53;2.55;;;21.30;31.20;;;;;;5115648;28;20437;-79
2022/03/08 09:18:16;;;;;;;2.28;2.00;;;21.20;31.20;;;;;;5115110;28;20052;-79
2022/03/08 09:20:43;;;;;;;2.70;2.45;;;21.20;31.20;;;;;;5115180;28;20085;-79
2022/03/08 09:23:09;;;;;;;3.75;2.60;;;21.20;31.30;;;;;;5115204;28;20184;-79
2022/03/08 09:25:35;;;;;;;3.35;2.53;;;21.20;31.20;;;;;;5115475;28;20052;-79
2022/03/08 09:28:05;;;;;;;4.03;2.63;;;21.20;31.30;;;;;;5096552;28;20058;-79
2022/03/08 09:30:31;;;;;;;3.00;2.70;;;21.20;31.30;;;;;;5097187;28;20047;-78
2022/03/08 09:32:58;;;;;;;3.83;2.72;;;21.20;31.20;;;;;;5096748;28;20051;-79
2022/03/08 09:35:25;;;;;;;3.15;2.60;;;21.20;31.20;;;;;;5096809;28;20138;-79
2022/03/08 09:37:51;;;;;;;3.65;2.70;;;21.20;31.30;;;;;;5114884;28;20052;-80
2022/03/08 09:40:16;;;;;;;4.82;2.90;;;21.20;31.20;;;;;;5097176;28;20062;-77
2022/03/08 09:42:42;;;;;;;3.65;2.45;;;21.20;31.30;;;;;;5115142;28;20051;-81
2022/03/08 09:45:08;;;;;;;3.88;2.53;;;21.20;31.30;;;;;;5114753;28;20415;-78
2022/03/08 09:47:34;;;;;;;3.60;2.63;;;21.20;31.30;;;;;;5114781;28;20087;-79
2022/03/08 09:50:00;;;;;;;3.78;2.80;;;21.20;31.30;;;;;;5095010;28;20097;-79
2022/03/08 09:52:26;;;;;;;4.20;2.60;;;21.20;31.20;;;;;;5114704;28;20055;-79
2022/03/08 09:54:51;;;;;;;3.65;2.85;;;21.20;31.30;;;;;;5114782;28;20051;-78
2022/03/08 09:57:22;;;;;;;2.97;2.53;;;21.20;31.30;;;;;;5115150;28;20052;-79
2022/03/08 09:59:47;;;;;;;4.85;2.78;;;21.20;31.30;;;;;;5113338;28;20043;-79
2022/03/08 10:02:14;;;;;;;3.67;2.80;;;21.10;31.20;;;;;;5096286;28;20047;-79
2022/03/08 10:04:41;;;;;;;3.78;2.70;;;21.10;31.20;;;;;;5113456;28;20120;-79
2022/03/08 10:07:11;;;;;;;4.75;2.50;;;21.20;31.30;;;;;;5112529;28;20056;-80
2022/03/08 10:09:37;;;;;;;5.30;2.85;;;21.10;31.20;;;;;;5096327;28;20147;-79
2022/03/08 10:12:14;;;;;;;3.88;2.42;;;21.20;31.30;;;;;;5095000;28;20075;-79
2022/03/08 10:14:41;;;;;;;5.32;2.65;;;21.20;31.30;;;;;;5114485;28;20101;-79
2022/03/08 10:17:30;;;;;;;3.63;2.95;;;21.10;31.20;;;;;;5111984;28;20058;-80
2022/03/08 10:19:56;;;;;;;4.68;2.92;;;21.10;31.20;;;;;;5114151;28;20403;-80
2022/03/08 10:22:30;;;;;;;4.60;3.03;;;21.10;31.30;;;;;;5114211;28;20044;-77
2022/03/08 10:25:22;;;;;;;4.88;3.08;;;21.10;31.20;;;;;;5096259;28;20056;-78
2022/03/08 10:27:57;;;;;;;5.72;2.67;;;21.20;31.80;;;;;;5113972;28;20060;-77
2022/03/08 10:30:26;;;;;;;2.90;2.60;;;21.10;31.20;;;;;;5112932;28;20083;-80
2022/03/08 10:32:56;;;;;;;3.20;2.60;;;21.10;31.20;;;;;;5114122;28;20036;-80
2022/03/08 10:35:23;;;;;;;4.57;2.80;;;21.20;31.20;;;;;;5114179;28;20530;-79
2022/03/08 10:37:49;;;;;;;4.68;3.30;;;21.10;31.10;;;;;;5113884;28;20471;-79
2022/03/08 10:40:24;;;;;;;3.53;2.85;;;21.20;31.20;;;;;;5113844;28;20047;-79
2022/03/08 10:43:05;;;;;;;5.82;2.80;;;21.20;31.20;;;;;;5113947;28;20051;-79
2022/03/08 10:45:34;;;;;;;2.47;2.00;;;21.20;31.20;;;;;;5114125;28;20089;-79
2022/03/08 10:48:03;;;;;;;3.67;2.80;;;21.20;31.20;;;;;;5113640;28;20131;-80
2022/03/08 10:50:31;;;;;;;3.88;2.60;;;21.20;31.20;;;;;;5114034;28;20058;-79
2022/03/08 10:52:59;;;;;;;4.03;2.95;;;21.20;31.20;;;;;;5113757;28;20066;-79
2022/03/08 10:55:26;;;;;;;4.95;2.70;;;21.20;31.20;;;;;;5113601;28;20048;-80
2022/03/08 10:57:55;;;;;;;4.65;3.42;;;21.20;31.10;;;;;;5095300;28;20055;-80
2022/03/08 11:00:23;;;;;;;4.45;2.47;;;21.20;31.10;;;;;;5113698;28;20057;-80
2022/03/08 11:02:55;;;;;;;2.88;2.58;;;21.20;31.10;;;;;;5093117;28;20074;-80
2022/03/08 11:05:30;;;;;;;4.53;2.55;;;21.20;31.10;;;;;;5113672;28;20494;-80
2022/03/08 11:07:57;;;;;;;5.13;2.80;;;21.20;31.10;;;;;;5077084;28;20060;-80
2022/03/08 11:10:24;;;;;;;4.10;3.10;;;21.20;31.10;;;;;;5113493;28;20463;-80
2022/03/08 11:12:50;;;;;;;7.25;2.80;;;21.20;31.10;;;;;;5095066;28;20052;-79
2022/03/08 11:15:17;;;;;;;4.43;2.97;;;21.20;31.10;;;;;;5113207;28;20055;-80
2022/03/08 11:17:45;;;;;;;5.05;2.50;;;21.20;31.00;;;;;;5113275;28;20058;-80
2022/03/08 11:20:12;;;;;;;4.75;3.10;;;21.20;31.10;;;;;;5113335;28;20491;-80
2022/03/08 11:22:39;;;;;;;3.88;2.70;;;21.20;31.00;;;;;;5094707;28;20047;-80
2022/03/08 11:25:08;;;;;;;4.22;2.80;;;21.20;31.00;;;;;;5113335;28;20076;-77
2022/03/08 11:27:36;;;;;;;4.15;3.03;;;21.20;31.10;;;;;;5111815;28;20502;-77
2022/03/08 11:30:03;;;;;;;3.65;2.78;;;21.20;31.00;;;;;;5113424;28;21528;-78
2022/03/08 11:33:10;;;;;;;4.38;2.70;;;21.20;31.00;;;;;;5113357;28;20075;-78
2022/03/08 11:35:52;;;;;;;4.75;3.10;;;21.20;31.00;;;;;;5058932;28;20055;-77
2022/03/08 11:38:18;;;;;;;4.13;2.75;;;21.20;31.00;;;;;;5112885;28;20055;-77
2022/03/08 11:40:53;;;;;;;4.53;2.55;;;21.20;31.00;;;;;;5113149;28;20048;-77
2022/03/08 11:43:19;;;;;;;3.97;2.72;;;21.20;31.00;;;;;;5094180;28;20134;-77
2022/03/08 11:45:48;;;;;;;7.38;2.92;;;21.20;31.00;;;;;;5113063;28;20043;-78
2022/03/08 11:48:18;;;;;;;5.75;2.97;;;21.20;31.00;;;;;;5112841;28;20055;-77
2022/03/08 11:50:44;;;;;;;4.77;4.00;;;21.20;31.00;;;;;;5113576;28;20051;-77
2022/03/08 11:53:19;;;;;;;5.60;2.80;;;21.20;30.90;;;;;;5112887;28;20171;-77
2022/03/08 11:55:44;;;;;;;4.80;2.97;;;21.20;30.90;;;;;;5112916;28;20050;-77
2022/03/08 11:58:13;;;;;;;5.57;2.92;;;21.20;30.90;;;;;;5112823;28;20047;-77
2022/03/08 12:00:53;;;;;;;4.00;2.80;;;21.20;30.90;;;;;;5111728;28;20054;-77
2022/03/08 12:03:22;;;;;;;1.83;1.60;;;21.20;31.00;;;;;;5112717;28;20096;-78
2022/03/08 12:06:06;;;;;;;3.42;2.40;;;21.20;31.00;;;;;;5112922;28;20043;-77
2022/03/08 12:08:39;;;;;;;4.55;3.00;;;21.20;30.90;;;;;;5112683;28;20490;-78
2022/03/08 12:11:14;;;;;;;3.60;2.95;;;21.20;31.00;;;;;;5112599;28;20488;-78
2022/03/08 12:13:46;;;;;;;4.97;2.50;;;21.20;30.90;;;;;;5112809;28;20492;-79
2022/03/08 12:16:25;;;;;;;4.40;2.60;;;21.20;30.90;;;;;;5077945;28;20051;-78
2022/03/08 12:18:54;;;;;;;3.88;2.60;;;21.30;31.00;;;;;;5112817;28;20055;-79
2022/03/08 12:21:23;;;;;;;4.53;3.10;;;21.20;30.90;;;;;;5094131;28;20510;-79
2022/03/08 12:23:58;;;;;;;6.22;3.10;;;21.20;30.90;;;;;;5112448;28;20130;-79
2022/03/08 12:26:29;;;;;;;8.65;3.15;;;21.20;30.90;;;;;;5094289;28;20052;-79
2022/03/08 12:29:17;;;;;;;4.03;2.72;;;21.20;30.90;;;;;;5096911;28;20143;-79
2022/03/08 12:31:58;;;;;;;4.05;2.60;;;21.20;30.90;;;;;;5116122;28;20502;-79
2022/03/08 12:34:47;;;;;;;4.38;2.72;;;21.20;31.00;;;;;;5097800;28;20063;-79
2022/03/08 12:37:21;;;;;;;5.43;2.95;;;21.20;31.00;;;;;;5112506;28;20063;-79
2022/03/08 12:39:47;;;;;;;5.00;2.97;;;21.20;30.90;;;;;;5115919;28;20058;-79
2022/03/08 12:42:24;;;;;;;4.47;2.97;;;21.20;30.90;;;;;;5115755;28;20043;-79
2022/03/08 12:44:59;;;;;;;5.38;3.08;;;21.20;30.90;;;;;;5115869;28;20096;-79
2022/03/08 12:47:27;;;;;;;5.75;2.90;;;21.20;30.90;;;;;;5096906;28;20138;-79
2022/03/08 12:49:53;;;;;;;4.85;2.42;;;21.20;30.80;;;;;;5116114;28;20130;-79